logo
Search for airport 
image banner adimage banner adimage banner ad
image banner ad

WMAV - Muar/Bakri

Located in Bukit Bakri, Malaysia

ICAO - WMAV, IATA -

Data provided by Airmate  

General information

Coordinates: N2°3'7" E102°39'28"
Elevation is 20 feet MSL.
Magnetic variation is 0° East
View others Airports in Johor

Operational data

Special qualification required
Current time UTC:
Current local time:
Weather at : WMKM - Malacca ( 51 km )
METAR: WMKM 170100Z VRB04KT 9999 FEW017CB SCT027 28/24 Q1011
TAF: TAF WMKM 162300Z 1700/1800 25005KT 9999 FEW017CB TEMPO 1700/1704 5000 TSRA FEW016CB SCT018
View NOTAMs / SUP AIP / TFR affecting this airport [VIEW]
Communications frequencies: [VIEW]

Runways:

RWY identifierQFULength (ft)Width (ft)SurfaceLDA (ft)
0440°116677GRAV
22220°116677GRAV

Airport contact information

Address: Bukit Bakri Malaysia

Satellite view of WMAV